sensor_id;sensor_type;location;lat;lon;timestamp;P1;durP1;ratioP1;P2;durP2;ratioP2
55647;SDS011;45266;48.756;9.246;2022-08-07T00:00:13;1.05;;;1.00;;
55647;SDS011;45266;48.756;9.246;2022-08-07T00:01:19;1.75;;;1.30;;
55647;SDS011;45266;48.756;9.246;2022-08-07T00:02:42;6.70;;;2.03;;
55647;SDS011;45266;48.756;9.246;2022-08-07T00:03:44;1.23;;;1.13;;
55647;SDS011;45266;48.756;9.246;2022-08-07T00:04:47;1.10;;;1.00;;
55647;SDS011;45266;48.756;9.246;2022-08-07T00:05:49;1.45;;;1.05;;
55647;SDS011;45266;48.756;9.246;2022-08-07T00:06:54;2.10;;;1.20;;
55647;SDS011;45266;48.756;9.246;2022-08-07T00:08:01;1.95;;;1.17;;
55647;SDS011;45266;48.756;9.246;2022-08-07T00:09:05;1.85;;;1.10;;
55647;SDS011;45266;48.756;9.246;2022-08-07T00:10:21;1.30;;;1.20;;
55647;SDS011;45266;48.756;9.246;2022-08-07T00:11:27;1.58;;;0.95;;
55647;SDS011;45266;48.756;9.246;2022-08-07T00:12:33;2.08;;;1.20;;
55647;SDS011;45266;48.756;9.246;2022-08-07T00:13:43;1.92;;;1.10;;
55647;SDS011;45266;48.756;9.246;2022-08-07T00:14:47;2.30;;;1.30;;
55647;SDS011;45266;48.756;9.246;2022-08-07T00:15:50;2.38;;;1.23;;
55647;SDS011;45266;48.756;9.246;2022-08-07T00:16:53;3.78;;;1.30;;
55647;SDS011;45266;48.756;9.246;2022-08-07T00:17:55;1.25;;;1.10;;
55647;SDS011;45266;48.756;9.246;2022-08-07T00:18:57;2.65;;;1.40;;
55647;SDS011;45266;48.756;9.246;2022-08-07T00:19:58;1.58;;;1.00;;
55647;SDS011;45266;48.756;9.246;2022-08-07T00:21:04;1.25;;;1.00;;
55647;SDS011;45266;48.756;9.246;2022-08-07T00:22:28;1.98;;;1.27;;
55647;SDS011;45266;48.756;9.246;2022-08-07T00:23:37;1.75;;;1.20;;
55647;SDS011;45266;48.756;9.246;2022-08-07T00:24:40;3.00;;;1.15;;
55647;SDS011;45266;48.756;9.246;2022-08-07T00:25:44;1.20;;;1.10;;
55647;SDS011;45266;48.756;9.246;2022-08-07T00:27:02;1.60;;;1.30;;
55647;SDS011;45266;48.756;9.246;2022-08-07T00:28:09;2.80;;;1.20;;
55647;SDS011;45266;48.756;9.246;2022-08-07T00:29:11;2.25;;;0.95;;
55647;SDS011;45266;48.756;9.246;2022-08-07T00:30:12;1.77;;;1.30;;
55647;SDS011;45266;48.756;9.246;2022-08-07T00:31:28;1.65;;;1.20;;
55647;SDS011;45266;48.756;9.246;2022-08-07T00:32:38;5.55;;;1.30;;
55647;SDS011;45266;48.756;9.246;2022-08-07T00:33:41;1.52;;;1.30;;
55647;SDS011;45266;48.756;9.246;2022-08-07T00:34:43;2.47;;;1.10;;
55647;SDS011;45266;48.756;9.246;2022-08-07T00:35:54;2.53;;;1.30;;
55647;SDS011;45266;48.756;9.246;2022-08-07T00:36:56;2.00;;;1.20;;
55647;SDS011;45266;48.756;9.246;2022-08-07T00:37:59;3.03;;;1.20;;
55647;SDS011;45266;48.756;9.246;2022-08-07T00:39:01;1.40;;;1.30;;
55647;SDS011;45266;48.756;9.246;2022-08-07T00:40:03;2.33;;;1.20;;
55647;SDS011;45266;48.756;9.246;2022-08-07T00:41:11;1.88;;;1.45;;
55647;SDS011;45266;48.756;9.246;2022-08-07T00:42:15;1.42;;;1.27;;
55647;SDS011;45266;48.756;9.246;2022-08-07T00:43:17;1.60;;;1.25;;
55647;SDS011;45266;48.756;9.246;2022-08-07T00:44:39;1.80;;;1.40;;
55647;SDS011;45266;48.756;9.246;2022-08-07T00:45:41;2.25;;;1.55;;
55647;SDS011;45266;48.756;9.246;2022-08-07T00:46:46;1.35;;;1.17;;
55647;SDS011;45266;48.756;9.246;2022-08-07T00:47:51;2.15;;;1.05;;
55647;SDS011;45266;48.756;9.246;2022-08-07T00:49:10;7.80;;;5.03;;
55647;SDS011;45266;48.756;9.246;2022-08-07T00:50:25;5.68;;;4.13;;
55647;SDS011;45266;48.756;9.246;2022-08-07T00:51:46;6.07;;;4.18;;
55647;SDS011;45266;48.756;9.246;2022-08-07T00:52:58;2.80;;;1.73;;
55647;SDS011;45266;48.756;9.246;2022-08-07T00:53:59;2.58;;;1.80;;
55647;SDS011;45266;48.756;9.246;2022-08-07T00:55:02;1.90;;;1.40;;
55647;SDS011;45266;48.756;9.246;2022-08-07T00:56:10;1.98;;;1.80;;
55647;SDS011;45266;48.756;9.246;2022-08-07T00:57:15;1.25;;;1.10;;
55647;SDS011;45266;48.756;9.246;2022-08-07T00:58:18;1.80;;;1.35;;
55647;SDS011;45266;48.756;9.246;2022-08-07T00:59:21;3.78;;;1.20;;
55647;SDS011;45266;48.756;9.246;2022-08-07T01:00:36;1.70;;;1.50;;
55647;SDS011;45266;48.756;9.246;2022-08-07T01:01:53;2.38;;;1.17;;
55647;SDS011;45266;48.756;9.246;2022-08-07T01:02:58;1.30;;;1.13;;
55647;SDS011;45266;48.756;9.246;2022-08-07T01:04:03;2.85;;;1.20;;
55647;SDS011;45266;48.756;9.246;2022-08-07T01:05:07;2.38;;;1.20;;
55647;SDS011;45266;48.756;9.246;2022-08-07T01:06:19;3.40;;;1.20;;
55647;SDS011;45266;48.756;9.246;2022-08-07T01:07:22;1.48;;;1.02;;
55647;SDS011;45266;48.756;9.246;2022-08-07T01:08:27;2.45;;;1.38;;
55647;SDS011;45266;48.756;9.246;2022-08-07T01:09:31;1.27;;;1.10;;
55647;SDS011;45266;48.756;9.246;2022-08-07T01:10:53;1.40;;;1.30;;
55647;SDS011;45266;48.756;9.246;2022-08-07T01:11:58;1.50;;;1.20;;
55647;SDS011;45266;48.756;9.246;2022-08-07T01:13:21;2.97;;;1.17;;
55647;SDS011;45266;48.756;9.246;2022-08-07T01:14:24;1.95;;;1.17;;
55647;SDS011;45266;48.756;9.246;2022-08-07T01:15:29;2.35;;;1.20;;
55647;SDS011;45266;48.756;9.246;2022-08-07T01:16:54;1.42;;;1.33;;
55647;SDS011;45266;48.756;9.246;2022-08-07T01:17:57;3.78;;;1.48;;
55647;SDS011;45266;48.756;9.246;2022-08-07T01:18:59;7.30;;;1.27;;
55647;SDS011;45266;48.756;9.246;2022-08-07T01:20:06;1.23;;;1.13;;
55647;SDS011;45266;48.756;9.246;2022-08-07T01:21:17;1.73;;;1.20;;
55647;SDS011;45266;48.756;9.246;2022-08-07T01:22:27;1.83;;;1.20;;
55647;SDS011;45266;48.756;9.246;2022-08-07T01:23:29;2.25;;;1.30;;
55647;SDS011;45266;48.756;9.246;2022-08-07T01:24:39;1.77;;;1.30;;
55647;SDS011;45266;48.756;9.246;2022-08-07T01:25:42;9.88;;;1.38;;
55647;SDS011;45266;48.756;9.246;2022-08-07T01:26:56;1.77;;;1.15;;
55647;SDS011;45266;48.756;9.246;2022-08-07T01:28:00;1.38;;;1.27;;
55647;SDS011;45266;48.756;9.246;2022-08-07T01:29:01;1.48;;;1.30;;
55647;SDS011;45266;48.756;9.246;2022-08-07T01:30:04;1.92;;;1.25;;
55647;SDS011;45266;48.756;9.246;2022-08-07T01:31:10;1.33;;;1.15;;
55647;SDS011;45266;48.756;9.246;2022-08-07T01:32:17;1.70;;;1.30;;
55647;SDS011;45266;48.756;9.246;2022-08-07T01:33:23;1.67;;;1.23;;
55647;SDS011;45266;48.756;9.246;2022-08-07T01:34:45;2.00;;;1.02;;
55647;SDS011;45266;48.756;9.246;2022-08-07T01:35:49;1.20;;;1.10;;
55647;SDS011;45266;48.756;9.246;2022-08-07T01:36:54;1.40;;;1.20;;
55647;SDS011;45266;48.756;9.246;2022-08-07T01:37:58;2.08;;;1.23;;
55647;SDS011;45266;48.756;9.246;2022-08-07T01:39:00;1.20;;;1.10;;
55647;SDS011;45266;48.756;9.246;2022-08-07T01:40:10;1.63;;;1.13;;
55647;SDS011;45266;48.756;9.246;2022-08-07T01:41:15;2.35;;;1.10;;
55647;SDS011;45266;48.756;9.246;2022-08-07T01:42:27;1.33;;;1.08;;
55647;SDS011;45266;48.756;9.246;2022-08-07T01:43:49;1.40;;;1.23;;
55647;SDS011;45266;48.756;9.246;2022-08-07T01:44:52;1.73;;;1.25;;
55647;SDS011;45266;48.756;9.246;2022-08-07T01:45:55;2.22;;;1.17;;
55647;SDS011;45266;48.756;9.246;2022-08-07T01:46:58;0.95;;;0.95;;
55647;SDS011;45266;48.756;9.246;2022-08-07T01:48:01;1.83;;;1.30;;
55647;SDS011;45266;48.756;9.246;2022-08-07T01:49:21;1.25;;;1.15;;
55647;SDS011;45266;48.756;9.246;2022-08-07T01:50:23;1.20;;;1.10;;
55647;SDS011;45266;48.756;9.246;2022-08-07T01:51:29;1.30;;;1.20;;
55647;SDS011;45266;48.756;9.246;2022-08-07T01:52:52;1.63;;;1.30;;
55647;SDS011;45266;48.756;9.246;2022-08-07T01:53:59;2.35;;;1.42;;
55647;SDS011;45266;48.756;9.246;2022-08-07T01:55:11;2.25;;;1.20;;
55647;SDS011;45266;48.756;9.246;2022-08-07T01:56:25;1.40;;;1.30;;
55647;SDS011;45266;48.756;9.246;2022-08-07T01:57:38;2.00;;;1.10;;
55647;SDS011;45266;48.756;9.246;2022-08-07T01:59:22;1.30;;;1.20;;
55647;SDS011;45266;48.756;9.246;2022-08-07T02:00:31;1.65;;;1.20;;
55647;SDS011;45266;48.756;9.246;2022-08-07T02:01:47;1.75;;;1.55;;
55647;SDS011;45266;48.756;9.246;2022-08-07T02:03:06;1.33;;;1.23;;
55647;SDS011;45266;48.756;9.246;2022-08-07T02:04:48;1.65;;;1.30;;
55647;SDS011;45266;48.756;9.246;2022-08-07T02:06:04;4.32;;;1.20;;
55647;SDS011;45266;48.756;9.246;2022-08-07T02:07:38;1.55;;;1.23;;
55647;SDS011;45266;48.756;9.246;2022-08-07T02:08:51;1.30;;;1.20;;
55647;SDS011;45266;48.756;9.246;2022-08-07T02:09:55;1.30;;;1.20;;
55647;SDS011;45266;48.756;9.246;2022-08-07T02:10:59;1.73;;;1.25;;
55647;SDS011;45266;48.756;9.246;2022-08-07T02:12:04;1.60;;;1.30;;
55647;SDS011;45266;48.756;9.246;2022-08-07T02:13:25;3.25;;;1.30;;
55647;SDS011;45266;48.756;9.246;2022-08-07T02:14:50;1.95;;;1.30;;
55647;SDS011;45266;48.756;9.246;2022-08-07T02:15:55;2.30;;;1.20;;
55647;SDS011;45266;48.756;9.246;2022-08-07T02:17:01;2.25;;;1.42;;
55647;SDS011;45266;48.756;9.246;2022-08-07T02:18:08;1.80;;;1.20;;
55647;SDS011;45266;48.756;9.246;2022-08-07T02:19:12;1.98;;;1.40;;
55647;SDS011;45266;48.756;9.246;2022-08-07T02:20:36;4.07;;;1.17;;
55647;SDS011;45266;48.756;9.246;2022-08-07T02:21:41;2.33;;;1.20;;
55647;SDS011;45266;48.756;9.246;2022-08-07T02:23:00;3.17;;;1.50;;
55647;SDS011;45266;48.756;9.246;2022-08-07T02:24:05;1.55;;;1.27;;
55647;SDS011;45266;48.756;9.246;2022-08-07T02:25:09;3.20;;;1.45;;
55647;SDS011;45266;48.756;9.246;2022-08-07T02:26:18;2.58;;;1.30;;
55647;SDS011;45266;48.756;9.246;2022-08-07T02:27:34;1.30;;;1.20;;
55647;SDS011;45266;48.756;9.246;2022-08-07T02:28:41;2.15;;;1.20;;
55647;SDS011;45266;48.756;9.246;2022-08-07T02:29:45;1.40;;;1.30;;
55647;SDS011;45266;48.756;9.246;2022-08-07T02:30:55;2.95;;;1.20;;
55647;SDS011;45266;48.756;9.246;2022-08-07T02:31:59;2.45;;;1.17;;
55647;SDS011;45266;48.756;9.246;2022-08-07T02:33:03;1.50;;;1.40;;
55647;SDS011;45266;48.756;9.246;2022-08-07T02:34:10;2.13;;;1.30;;
55647;SDS011;45266;48.756;9.246;2022-08-07T02:35:18;1.75;;;1.40;;
55647;SDS011;45266;48.756;9.246;2022-08-07T02:36:40;1.60;;;1.30;;
55647;SDS011;45266;48.756;9.246;2022-08-07T02:37:45;1.35;;;1.15;;
55647;SDS011;45266;48.756;9.246;2022-08-07T02:38:48;1.95;;;1.20;;
55647;SDS011;45266;48.756;9.246;2022-08-07T02:39:57;1.75;;;1.40;;
55647;SDS011;45266;48.756;9.246;2022-08-07T02:41:20;2.42;;;1.45;;
55647;SDS011;45266;48.756;9.246;2022-08-07T02:42:33;1.20;;;1.10;;
55647;SDS011;45266;48.756;9.246;2022-08-07T02:43:37;3.38;;;1.20;;
55647;SDS011;45266;48.756;9.246;2022-08-07T02:44:44;1.40;;;1.20;;
55647;SDS011;45266;48.756;9.246;2022-08-07T02:45:49;3.42;;;1.40;;
55647;SDS011;45266;48.756;9.246;2022-08-07T02:47:02;3.50;;;1.30;;
55647;SDS011;45266;48.756;9.246;2022-08-07T02:48:07;2.85;;;1.40;;
55647;SDS011;45266;48.756;9.246;2022-08-07T02:49:15;3.28;;;1.15;;
55647;SDS011;45266;48.756;9.246;2022-08-07T02:50:38;3.13;;;1.52;;
55647;SDS011;45266;48.756;9.246;2022-08-07T02:51:43;2.20;;;2.00;;
55647;SDS011;45266;48.756;9.246;2022-08-07T02:52:53;1.65;;;1.33;;
55647;SDS011;45266;48.756;9.246;2022-08-07T02:54:03;2.92;;;1.40;;
55647;SDS011;45266;48.756;9.246;2022-08-07T02:55:11;1.40;;;1.30;;
55647;SDS011;45266;48.756;9.246;2022-08-07T02:56:37;1.60;;;1.25;;
55647;SDS011;45266;48.756;9.246;2022-08-07T02:57:41;1.80;;;1.20;;
55647;SDS011;45266;48.756;9.246;2022-08-07T02:58:47;1.60;;;1.45;;
55647;SDS011;45266;48.756;9.246;2022-08-07T02:59:54;1.48;;;1.33;;
55647;SDS011;45266;48.756;9.246;2022-08-07T03:01:05;3.38;;;1.50;;
55647;SDS011;45266;48.756;9.246;2022-08-07T03:02:19;1.50;;;1.40;;
55647;SDS011;45266;48.756;9.246;2022-08-07T03:03:22;1.70;;;1.20;;
55647;SDS011;45266;48.756;9.246;2022-08-07T03:04:43;1.23;;;1.13;;
55647;SDS011;45266;48.756;9.246;2022-08-07T03:05:50;1.65;;;1.40;;
55647;SDS011;45266;48.756;9.246;2022-08-07T03:06:54;1.75;;;1.10;;
55647;SDS011;45266;48.756;9.246;2022-08-07T03:07:56;2.40;;;1.77;;
55647;SDS011;45266;48.756;9.246;2022-08-07T03:09:10;2.30;;;1.60;;
55647;SDS011;45266;48.756;9.246;2022-08-07T03:10:12;1.30;;;1.20;;
55647;SDS011;45266;48.756;9.246;2022-08-07T03:11:17;1.85;;;1.42;;
55647;SDS011;45266;48.756;9.246;2022-08-07T03:12:26;1.33;;;1.20;;
55647;SDS011;45266;48.756;9.246;2022-08-07T03:13:31;1.90;;;1.30;;
55647;SDS011;45266;48.756;9.246;2022-08-07T03:14:49;1.30;;;1.20;;
55647;SDS011;45266;48.756;9.246;2022-08-07T03:15:53;1.23;;;1.13;;
55647;SDS011;45266;48.756;9.246;2022-08-07T03:16:58;1.30;;;1.20;;
55647;SDS011;45266;48.756;9.246;2022-08-07T03:18:04;1.30;;;1.20;;
55647;SDS011;45266;48.756;9.246;2022-08-07T03:19:06;1.75;;;1.20;;
55647;SDS011;45266;48.756;9.246;2022-08-07T03:20:12;1.50;;;1.35;;
55647;SDS011;45266;48.756;9.246;2022-08-07T03:21:16;1.60;;;1.40;;
55647;SDS011;45266;48.756;9.246;2022-08-07T03:22:19;1.48;;;1.20;;
55647;SDS011;45266;48.756;9.246;2022-08-07T03:23:29;1.50;;;1.33;;
55647;SDS011;45266;48.756;9.246;2022-08-07T03:24:53;1.80;;;1.60;;
55647;SDS011;45266;48.756;9.246;2022-08-07T03:25:56;2.03;;;1.55;;
55647;SDS011;45266;48.756;9.246;2022-08-07T03:27:16;1.50;;;1.40;;
55647;SDS011;45266;48.756;9.246;2022-08-07T03:28:40;1.52;;;1.15;;
55647;SDS011;45266;48.756;9.246;2022-08-07T03:29:49;4.20;;;1.30;;
55647;SDS011;45266;48.756;9.246;2022-08-07T03:30:54;2.00;;;1.30;;
55647;SDS011;45266;48.756;9.246;2022-08-07T03:32:18;2.33;;;1.30;;
55647;SDS011;45266;48.756;9.246;2022-08-07T03:33:50;1.38;;;1.27;;
55647;SDS011;45266;48.756;9.246;2022-08-07T03:34:57;1.77;;;1.25;;
55647;SDS011;45266;48.756;9.246;2022-08-07T03:36:19;1.80;;;1.40;;
55647;SDS011;45266;48.756;9.246;2022-08-07T03:37:26;1.70;;;1.20;;
55647;SDS011;45266;48.756;9.246;2022-08-07T03:38:32;1.40;;;1.30;;
55647;SDS011;45266;48.756;9.246;2022-08-07T03:39:36;5.15;;;1.55;;
55647;SDS011;45266;48.756;9.246;2022-08-07T03:40:59;1.58;;;1.40;;
55647;SDS011;45266;48.756;9.246;2022-08-07T03:42:04;1.50;;;1.40;;
55647;SDS011;45266;48.756;9.246;2022-08-07T03:43:06;2.15;;;1.50;;
55647;SDS011;45266;48.756;9.246;2022-08-07T03:44:18;1.63;;;1.45;;
55647;SDS011;45266;48.756;9.246;2022-08-07T03:45:32;2.35;;;1.65;;
55647;SDS011;45266;48.756;9.246;2022-08-07T03:46:39;1.70;;;1.52;;
55647;SDS011;45266;48.756;9.246;2022-08-07T03:48:03;2.03;;;1.75;;
55647;SDS011;45266;48.756;9.246;2022-08-07T03:49:11;2.22;;;1.50;;
55647;SDS011;45266;48.756;9.246;2022-08-07T03:50:18;1.90;;;1.48;;
55647;SDS011;45266;48.756;9.246;2022-08-07T03:51:23;1.50;;;1.40;;
55647;SDS011;45266;48.756;9.246;2022-08-07T03:52:47;2.40;;;1.75;;
55647;SDS011;45266;48.756;9.246;2022-08-07T03:53:49;2.10;;;1.40;;
55647;SDS011;45266;48.756;9.246;2022-08-07T03:55:11;2.35;;;1.45;;
55647;SDS011;45266;48.756;9.246;2022-08-07T03:56:19;1.45;;;1.35;;
55647;SDS011;45266;48.756;9.246;2022-08-07T03:57:34;2.28;;;1.35;;
55647;SDS011;45266;48.756;9.246;2022-08-07T03:59:06;1.85;;;1.40;;
55647;SDS011;45266;48.756;9.246;2022-08-07T04:00:13;1.88;;;1.40;;
55647;SDS011;45266;48.756;9.246;2022-08-07T04:01:32;1.75;;;1.50;;
55647;SDS011;45266;48.756;9.246;2022-08-07T04:02:37;2.08;;;1.60;;
55647;SDS011;45266;48.756;9.246;2022-08-07T04:03:47;2.30;;;1.42;;
55647;SDS011;45266;48.756;9.246;2022-08-07T04:04:59;1.30;;;1.20;;
55647;SDS011;45266;48.756;9.246;2022-08-07T04:06:01;1.80;;;1.48;;
55647;SDS011;45266;48.756;9.246;2022-08-07T04:07:03;1.45;;;1.33;;
55647;SDS011;45266;48.756;9.246;2022-08-07T04:08:20;2.50;;;1.55;;
55647;SDS011;45266;48.756;9.246;2022-08-07T04:09:22;2.05;;;1.45;;
55647;SDS011;45266;48.756;9.246;2022-08-07T04:10:38;1.63;;;1.40;;
55647;SDS011;45266;48.756;9.246;2022-08-07T04:11:43;1.70;;;1.60;;
55647;SDS011;45266;48.756;9.246;2022-08-07T04:13:05;1.50;;;1.40;;
55647;SDS011;45266;48.756;9.246;2022-08-07T04:14:15;1.70;;;1.35;;
55647;SDS011;45266;48.756;9.246;2022-08-07T04:15:38;1.52;;;1.42;;
55647;SDS011;45266;48.756;9.246;2022-08-07T04:16:40;1.63;;;1.52;;
55647;SDS011;45266;48.756;9.246;2022-08-07T04:17:59;2.03;;;1.70;;
55647;SDS011;45266;48.756;9.246;2022-08-07T04:19:22;1.75;;;1.65;;
55647;SDS011;45266;48.756;9.246;2022-08-07T04:20:46;2.10;;;1.70;;
55647;SDS011;45266;48.756;9.246;2022-08-07T04:21:56;1.50;;;1.40;;
55647;SDS011;45266;48.756;9.246;2022-08-07T04:23:14;1.70;;;1.60;;
55647;SDS011;45266;48.756;9.246;2022-08-07T04:24:19;2.28;;;1.90;;
55647;SDS011;45266;48.756;9.246;2022-08-07T04:25:34;1.77;;;1.67;;
55647;SDS011;45266;48.756;9.246;2022-08-07T04:26:41;2.78;;;1.50;;
55647;SDS011;45266;48.756;9.246;2022-08-07T04:27:44;2.55;;;1.63;;
55647;SDS011;45266;48.756;9.246;2022-08-07T04:29:00;2.95;;;1.73;;
55647;SDS011;45266;48.756;9.246;2022-08-07T04:30:03;2.58;;;1.65;;
55647;SDS011;45266;48.756;9.246;2022-08-07T04:31:24;1.85;;;1.45;;
55647;SDS011;45266;48.756;9.246;2022-08-07T04:32:46;2.05;;;1.80;;
55647;SDS011;45266;48.756;9.246;2022-08-07T04:33:58;1.75;;;1.50;;
55647;SDS011;45266;48.756;9.246;2022-08-07T04:35:03;1.92;;;1.30;;
55647;SDS011;45266;48.756;9.246;2022-08-07T04:36:07;1.85;;;1.45;;
55647;SDS011;45266;48.756;9.246;2022-08-07T04:37:14;1.63;;;1.52;;
55647;SDS011;45266;48.756;9.246;2022-08-07T04:38:36;1.92;;;1.40;;
55647;SDS011;45266;48.756;9.246;2022-08-07T04:39:39;1.45;;;1.35;;
55647;SDS011;45266;48.756;9.246;2022-08-07T04:40:48;1.92;;;1.42;;
55647;SDS011;45266;48.756;9.246;2022-08-07T04:41:53;2.25;;;1.33;;
55647;SDS011;45266;48.756;9.246;2022-08-07T04:42:57;1.45;;;1.35;;
55647;SDS011;45266;48.756;9.246;2022-08-07T04:44:03;2.60;;;1.60;;
55647;SDS011;45266;48.756;9.246;2022-08-07T04:45:18;1.67;;;1.50;;
55647;SDS011;45266;48.756;9.246;2022-08-07T04:46:44;2.80;;;1.50;;
55647;SDS011;45266;48.756;9.246;2022-08-07T04:48:11;1.63;;;1.52;;
55647;SDS011;45266;48.756;9.246;2022-08-07T04:51:15;1.60;;;1.40;;
55647;SDS011;45266;48.756;9.246;2022-08-07T04:52:49;3.15;;;1.67;;
55647;SDS011;45266;48.756;9.246;2022-08-07T04:58:38;4.82;;;1.60;;
55647;SDS011;45266;48.756;9.246;2022-08-07T05:00:08;1.90;;;1.75;;
55647;SDS011;45266;48.756;9.246;2022-08-07T05:01:23;2.60;;;1.70;;
55647;SDS011;45266;48.756;9.246;2022-08-07T05:04:11;2.55;;;1.50;;
55647;SDS011;45266;48.756;9.246;2022-08-07T05:05:22;1.98;;;1.58;;
55647;SDS011;45266;48.756;9.246;2022-08-07T05:06:57;1.70;;;1.60;;
55647;SDS011;45266;48.756;9.246;2022-08-07T05:08:25;1.83;;;1.50;;
55647;SDS011;45266;48.756;9.246;2022-08-07T05:09:57;2.30;;;1.52;;
55647;SDS011;45266;48.756;9.246;2022-08-07T05:11:29;2.05;;;1.67;;
55647;SDS011;45266;48.756;9.246;2022-08-07T05:12:57;1.77;;;1.50;;
55647;SDS011;45266;48.756;9.246;2022-08-07T05:14:29;2.17;;;1.63;;
55647;SDS011;45266;48.756;9.246;2022-08-07T05:15:56;1.85;;;1.75;;
55647;SDS011;45266;48.756;9.246;2022-08-07T05:17:04;1.50;;;1.40;;
55647;SDS011;45266;48.756;9.246;2022-08-07T05:18:18;1.80;;;1.70;;
55647;SDS011;45266;48.756;9.246;2022-08-07T05:19:26;1.70;;;1.60;;
55647;SDS011;45266;48.756;9.246;2022-08-07T05:20:46;1.77;;;1.55;;
55647;SDS011;45266;48.756;9.246;2022-08-07T05:21:54;4.13;;;1.70;;
55647;SDS011;45266;48.756;9.246;2022-08-07T05:23:07;1.60;;;1.50;;
55647;SDS011;45266;48.756;9.246;2022-08-07T05:24:16;2.00;;;1.80;;
55647;SDS011;45266;48.756;9.246;2022-08-07T05:25:24;2.95;;;1.73;;
55647;SDS011;45266;48.756;9.246;2022-08-07T05:26:49;1.77;;;1.42;;
55647;SDS011;45266;48.756;9.246;2022-08-07T05:27:55;1.70;;;1.60;;
55647;SDS011;45266;48.756;9.246;2022-08-07T05:29:18;3.08;;;1.60;;
55647;SDS011;45266;48.756;9.246;2022-08-07T05:30:22;1.65;;;1.55;;
55647;SDS011;45266;48.756;9.246;2022-08-07T05:31:33;1.88;;;1.67;;
55647;SDS011;45266;48.756;9.246;2022-08-07T05:32:39;1.80;;;1.70;;
55647;SDS011;45266;48.756;9.246;2022-08-07T05:33:43;2.55;;;1.58;;
55647;SDS011;45266;48.756;9.246;2022-08-07T05:35:05;1.58;;;1.48;;
55647;SDS011;45266;48.756;9.246;2022-08-07T05:36:09;1.70;;;1.60;;
55647;SDS011;45266;48.756;9.246;2022-08-07T05:37:22;2.30;;;1.75;;
55647;SDS011;45266;48.756;9.246;2022-08-07T05:38:25;2.42;;;1.50;;
55647;SDS011;45266;48.756;9.246;2022-08-07T05:39:49;2.95;;;1.50;;
55647;SDS011;45266;48.756;9.246;2022-08-07T05:41:12;2.67;;;1.67;;
55647;SDS011;45266;48.756;9.246;2022-08-07T05:42:17;1.70;;;1.60;;
55647;SDS011;45266;48.756;9.246;2022-08-07T05:43:35;1.73;;;1.50;;
55647;SDS011;45266;48.756;9.246;2022-08-07T05:44:58;1.88;;;1.67;;
55647;SDS011;45266;48.756;9.246;2022-08-07T05:46:22;1.83;;;1.60;;
55647;SDS011;45266;48.756;9.246;2022-08-07T05:47:26;1.95;;;1.52;;
55647;SDS011;45266;48.756;9.246;2022-08-07T05:48:49;1.70;;;1.60;;
55647;SDS011;45266;48.756;9.246;2022-08-07T05:50:00;1.80;;;1.70;;
55647;SDS011;45266;48.756;9.246;2022-08-07T05:51:03;2.22;;;1.63;;
55647;SDS011;45266;48.756;9.246;2022-08-07T05:52:09;1.88;;;1.60;;
55647;SDS011;45266;48.756;9.246;2022-08-07T05:53:12;1.58;;;1.48;;
55647;SDS011;45266;48.756;9.246;2022-08-07T05:54:34;1.95;;;1.75;;
55647;SDS011;45266;48.756;9.246;2022-08-07T05:55:56;1.52;;;1.42;;
55647;SDS011;45266;48.756;9.246;2022-08-07T05:57:04;1.83;;;1.63;;
55647;SDS011;45266;48.756;9.246;2022-08-07T05:58:08;1.58;;;1.48;;
55647;SDS011;45266;48.756;9.246;2022-08-07T05:59:16;2.90;;;1.90;;
55647;SDS011;45266;48.756;9.246;2022-08-07T06:00:21;3.22;;;1.42;;
55647;SDS011;45266;48.756;9.246;2022-08-07T06:01:25;1.65;;;1.55;;
55647;SDS011;45266;48.756;9.246;2022-08-07T06:02:36;2.30;;;1.65;;
55647;SDS011;45266;48.756;9.246;2022-08-07T06:03:49;1.70;;;1.60;;
55647;SDS011;45266;48.756;9.246;2022-08-07T06:05:08;2.13;;;1.80;;
55647;SDS011;45266;48.756;9.246;2022-08-07T06:06:16;2.42;;;1.95;;
55647;SDS011;45266;48.756;9.246;2022-08-07T06:07:19;2.10;;;1.92;;
55647;SDS011;45266;48.756;9.246;2022-08-07T06:08:41;2.30;;;2.03;;
55647;SDS011;45266;48.756;9.246;2022-08-07T06:09:46;3.05;;;2.10;;
55647;SDS011;45266;48.756;9.246;2022-08-07T06:11:06;2.63;;;2.33;;
55647;SDS011;45266;48.756;9.246;2022-08-07T06:12:10;2.78;;;2.50;;
55647;SDS011;45266;48.756;9.246;2022-08-07T06:13:15;2.78;;;2.58;;
55647;SDS011;45266;48.756;9.246;2022-08-07T06:14:17;2.67;;;2.47;;
55647;SDS011;45266;48.756;9.246;2022-08-07T06:15:29;2.40;;;2.20;;
55647;SDS011;45266;48.756;9.246;2022-08-07T06:16:42;3.30;;;2.50;;
55647;SDS011;45266;48.756;9.246;2022-08-07T06:17:55;3.13;;;2.80;;
55647;SDS011;45266;48.756;9.246;2022-08-07T06:19:00;4.05;;;2.55;;
55647;SDS011;45266;48.756;9.246;2022-08-07T06:20:07;3.22;;;2.58;;
55647;SDS011;45266;48.756;9.246;2022-08-07T06:21:26;3.60;;;2.63;;
55647;SDS011;45266;48.756;9.246;2022-08-07T06:22:48;3.05;;;2.70;;
55647;SDS011;45266;48.756;9.246;2022-08-07T06:24:13;2.80;;;2.58;;
55647;SDS011;45266;48.756;9.246;2022-08-07T06:25:35;3.20;;;2.90;;
55647;SDS011;45266;48.756;9.246;2022-08-07T06:26:54;4.70;;;2.85;;
55647;SDS011;45266;48.756;9.246;2022-08-07T06:28:06;3.15;;;2.92;;
55647;SDS011;45266;48.756;9.246;2022-08-07T06:29:14;2.85;;;2.65;;
55647;SDS011;45266;48.756;9.246;2022-08-07T06:30:16;3.35;;;2.72;;
55647;SDS011;45266;48.756;9.246;2022-08-07T06:31:35;2.90;;;2.70;;
55647;SDS011;45266;48.756;9.246;2022-08-07T06:32:50;3.33;;;3.03;;
55647;SDS011;45266;48.756;9.246;2022-08-07T06:33:52;4.05;;;2.75;;
55647;SDS011;45266;48.756;9.246;2022-08-07T06:34:54;3.90;;;2.80;;
55647;SDS011;45266;48.756;9.246;2022-08-07T06:35:56;4.65;;;2.97;;
55647;SDS011;45266;48.756;9.246;2022-08-07T06:37:14;4.07;;;3.47;;
55647;SDS011;45266;48.756;9.246;2022-08-07T06:38:35;4.43;;;3.30;;
55647;SDS011;45266;48.756;9.246;2022-08-07T06:39:37;4.22;;;3.10;;
55647;SDS011;45266;48.756;9.246;2022-08-07T06:40:59;3.20;;;2.90;;
55647;SDS011;45266;48.756;9.246;2022-08-07T06:42:10;3.10;;;2.80;;
55647;SDS011;45266;48.756;9.246;2022-08-07T06:43:19;3.13;;;2.83;;
55647;SDS011;45266;48.756;9.246;2022-08-07T06:44:23;3.08;;;2.78;;
55647;SDS011;45266;48.756;9.246;2022-08-07T06:45:34;3.63;;;2.92;;
55647;SDS011;45266;48.756;9.246;2022-08-07T06:46:37;3.28;;;2.97;;
55647;SDS011;45266;48.756;9.246;2022-08-07T06:47:40;2.97;;;2.67;;
55647;SDS011;45266;48.756;9.246;2022-08-07T06:48:59;3.33;;;2.70;;
55647;SDS011;45266;48.756;9.246;2022-08-07T06:50:04;3.38;;;2.70;;
55647;SDS011;45266;48.756;9.246;2022-08-07T06:51:13;3.38;;;2.70;;
55647;SDS011;45266;48.756;9.246;2022-08-07T06:52:43;3.65;;;2.70;;
55647;SDS011;45266;48.756;9.246;2022-08-07T06:53:53;4.25;;;2.70;;
55647;SDS011;45266;48.756;9.246;2022-08-07T06:55:25;2.90;;;2.67;;
55647;SDS011;45266;48.756;9.246;2022-08-07T06:56:48;3.83;;;2.90;;
55647;SDS011;45266;48.756;9.246;2022-08-07T06:57:52;2.78;;;2.50;;
55647;SDS011;45266;48.756;9.246;2022-08-07T06:58:59;3.75;;;2.80;;
55647;SDS011;45266;48.756;9.246;2022-08-07T07:00:21;4.97;;;2.50;;
55647;SDS011;45266;48.756;9.246;2022-08-07T07:01:24;2.83;;;2.60;;
55647;SDS011;45266;48.756;9.246;2022-08-07T07:02:33;3.33;;;2.50;;
55647;SDS011;45266;48.756;9.246;2022-08-07T07:03:56;4.15;;;2.80;;
55647;SDS011;45266;48.756;9.246;2022-08-07T07:05:21;3.40;;;2.85;;
55647;SDS011;45266;48.756;9.246;2022-08-07T07:06:43;4.15;;;2.45;;
55647;SDS011;45266;48.756;9.246;2022-08-07T07:08:01;4.53;;;2.53;;
55647;SDS011;45266;48.756;9.246;2022-08-07T07:09:22;3.25;;;2.75;;
55647;SDS011;45266;48.756;9.246;2022-08-07T07:10:32;2.70;;;2.33;;
55647;SDS011;45266;48.756;9.246;2022-08-07T07:11:35;3.15;;;2.38;;
55647;SDS011;45266;48.756;9.246;2022-08-07T07:13:03;3.05;;;2.17;;
55647;SDS011;45266;48.756;9.246;2022-08-07T07:14:10;2.40;;;2.20;;
55647;SDS011;45266;48.756;9.246;2022-08-07T07:16:33;2.50;;;2.30;;
55647;SDS011;45266;48.756;9.246;2022-08-07T07:19:08;2.50;;;2.30;;